sensor_id;sensor_type;location;lat;lon;timestamp;P1;durP1;ratioP1;P2;durP2;ratioP2
65315;SDS011;51920;53.952;10.292;2023-04-24T00:01:21;9.27;;;5.55;;
65315;SDS011;51920;53.952;10.292;2023-04-24T00:03:48;7.45;;;5.53;;
65315;SDS011;51920;53.952;10.292;2023-04-24T00:06:17;7.87;;;5.27;;
65315;SDS011;51920;53.952;10.292;2023-04-24T00:08:43;7.70;;;5.13;;
65315;SDS011;51920;53.952;10.292;2023-04-24T00:11:10;7.03;;;5.20;;
65315;SDS011;51920;53.952;10.292;2023-04-24T00:13:37;6.22;;;5.10;;
65315;SDS011;51920;53.952;10.292;2023-04-24T00:16:04;6.20;;;4.72;;
65315;SDS011;51920;53.952;10.292;2023-04-24T00:18:31;6.07;;;4.80;;
65315;SDS011;51920;53.952;10.292;2023-04-24T00:20:58;7.32;;;4.70;;
65315;SDS011;51920;53.952;10.292;2023-04-24T00:23:24;7.05;;;5.22;;
65315;SDS011;51920;53.952;10.292;2023-04-24T00:25:51;7.03;;;5.40;;
65315;SDS011;51920;53.952;10.292;2023-04-24T00:28:18;7.68;;;5.20;;
65315;SDS011;51920;53.952;10.292;2023-04-24T00:30:44;6.37;;;4.83;;
65315;SDS011;51920;53.952;10.292;2023-04-24T00:33:11;5.72;;;4.82;;
65315;SDS011;51920;53.952;10.292;2023-04-24T00:35:38;7.35;;;5.13;;
65315;SDS011;51920;53.952;10.292;2023-04-24T00:38:04;7.72;;;5.15;;
65315;SDS011;51920;53.952;10.292;2023-04-24T00:40:31;7.00;;;5.05;;
65315;SDS011;51920;53.952;10.292;2023-04-24T00:42:58;8.27;;;5.40;;
65315;SDS011;51920;53.952;10.292;2023-04-24T00:45:24;8.73;;;5.75;;
65315;SDS011;51920;53.952;10.292;2023-04-24T00:47:52;8.60;;;5.20;;
65315;SDS011;51920;53.952;10.292;2023-04-24T00:50:20;7.80;;;5.60;;
65315;SDS011;51920;53.952;10.292;2023-04-24T00:52:47;8.43;;;5.50;;
65315;SDS011;51920;53.952;10.292;2023-04-24T00:55:14;8.80;;;5.23;;
65315;SDS011;51920;53.952;10.292;2023-04-24T00:57:41;6.47;;;5.25;;
65315;SDS011;51920;53.952;10.292;2023-04-24T01:00:07;8.18;;;5.72;;
65315;SDS011;51920;53.952;10.292;2023-04-24T01:02:39;7.85;;;5.78;;
65315;SDS011;51920;53.952;10.292;2023-04-24T01:05:07;8.38;;;5.75;;
65315;SDS011;51920;53.952;10.292;2023-04-24T01:07:34;6.90;;;5.17;;
65315;SDS011;51920;53.952;10.292;2023-04-24T01:10:02;8.20;;;6.00;;
65315;SDS011;51920;53.952;10.292;2023-04-24T01:12:28;7.65;;;5.78;;
65315;SDS011;51920;53.952;10.292;2023-04-24T01:14:55;8.13;;;5.55;;
65315;SDS011;51920;53.952;10.292;2023-04-24T01:17:23;9.50;;;5.93;;
65315;SDS011;51920;53.952;10.292;2023-04-24T01:19:49;8.57;;;5.77;;
65315;SDS011;51920;53.952;10.292;2023-04-24T01:22:19;8.38;;;5.30;;
65315;SDS011;51920;53.952;10.292;2023-04-24T01:24:47;6.88;;;5.25;;
65315;SDS011;51920;53.952;10.292;2023-04-24T01:27:13;7.70;;;5.50;;
65315;SDS011;51920;53.952;10.292;2023-04-24T01:29:40;7.93;;;5.68;;
65315;SDS011;51920;53.952;10.292;2023-04-24T01:32:08;9.03;;;5.80;;
65315;SDS011;51920;53.952;10.292;2023-04-24T01:34:35;9.40;;;5.70;;
65315;SDS011;51920;53.952;10.292;2023-04-24T01:37:03;6.90;;;5.40;;
65315;SDS011;51920;53.952;10.292;2023-04-24T01:39:31;7.95;;;5.60;;
65315;SDS011;51920;53.952;10.292;2023-04-24T01:41:59;8.43;;;6.07;;
65315;SDS011;51920;53.952;10.292;2023-04-24T01:44:27;9.03;;;5.77;;
65315;SDS011;51920;53.952;10.292;2023-04-24T01:46:54;8.57;;;5.70;;
65315;SDS011;51920;53.952;10.292;2023-04-24T01:49:22;8.70;;;6.38;;
65315;SDS011;51920;53.952;10.292;2023-04-24T01:51:49;9.68;;;5.90;;
65315;SDS011;51920;53.952;10.292;2023-04-24T01:54:16;9.80;;;5.88;;
65315;SDS011;51920;53.952;10.292;2023-04-24T01:56:42;8.97;;;5.67;;
65315;SDS011;51920;53.952;10.292;2023-04-24T01:59:10;7.80;;;5.70;;
65315;SDS011;51920;53.952;10.292;2023-04-24T02:01:38;8.68;;;5.95;;
65315;SDS011;51920;53.952;10.292;2023-04-24T02:04:05;7.47;;;5.60;;
65315;SDS011;51920;53.952;10.292;2023-04-24T02:06:34;9.52;;;5.55;;
65315;SDS011;51920;53.952;10.292;2023-04-24T02:09:01;6.70;;;5.27;;
65315;SDS011;51920;53.952;10.292;2023-04-24T02:11:29;8.13;;;5.63;;
65315;SDS011;51920;53.952;10.292;2023-04-24T02:13:56;7.88;;;5.32;;
65315;SDS011;51920;53.952;10.292;2023-04-24T02:16:23;8.43;;;5.30;;
65315;SDS011;51920;53.952;10.292;2023-04-24T02:18:49;7.93;;;5.32;;
65315;SDS011;51920;53.952;10.292;2023-04-24T02:21:16;7.70;;;5.40;;
65315;SDS011;51920;53.952;10.292;2023-04-24T02:23:42;6.88;;;5.50;;
65315;SDS011;51920;53.952;10.292;2023-04-24T02:26:11;7.28;;;4.90;;
65315;SDS011;51920;53.952;10.292;2023-04-24T02:28:38;6.68;;;4.75;;
65315;SDS011;51920;53.952;10.292;2023-04-24T02:31:04;7.13;;;4.97;;
65315;SDS011;51920;53.952;10.292;2023-04-24T02:33:32;6.60;;;4.77;;
65315;SDS011;51920;53.952;10.292;2023-04-24T02:35:58;7.18;;;5.10;;
65315;SDS011;51920;53.952;10.292;2023-04-24T02:38:25;6.40;;;4.88;;
65315;SDS011;51920;53.952;10.292;2023-04-24T02:40:52;7.40;;;5.05;;
65315;SDS011;51920;53.952;10.292;2023-04-24T02:43:18;7.35;;;4.95;;
65315;SDS011;51920;53.952;10.292;2023-04-24T02:45:45;6.20;;;4.57;;
65315;SDS011;51920;53.952;10.292;2023-04-24T02:48:12;6.78;;;4.70;;
65315;SDS011;51920;53.952;10.292;2023-04-24T02:50:38;6.63;;;5.03;;
65315;SDS011;51920;53.952;10.292;2023-04-24T02:53:05;6.80;;;4.60;;
65315;SDS011;51920;53.952;10.292;2023-04-24T02:55:32;5.85;;;4.40;;
65315;SDS011;51920;53.952;10.292;2023-04-24T02:57:58;6.40;;;4.63;;
65315;SDS011;51920;53.952;10.292;2023-04-24T03:00:25;5.20;;;4.32;;
65315;SDS011;51920;53.952;10.292;2023-04-24T03:02:52;5.68;;;4.43;;
65315;SDS011;51920;53.952;10.292;2023-04-24T03:05:19;5.57;;;4.30;;
65315;SDS011;51920;53.952;10.292;2023-04-24T03:07:46;5.78;;;4.32;;
65315;SDS011;51920;53.952;10.292;2023-04-24T03:10:13;6.30;;;4.30;;
65315;SDS011;51920;53.952;10.292;2023-04-24T03:12:40;5.88;;;4.10;;
65315;SDS011;51920;53.952;10.292;2023-04-24T03:15:07;4.82;;;3.88;;
65315;SDS011;51920;53.952;10.292;2023-04-24T03:17:36;5.60;;;4.05;;
65315;SDS011;51920;53.952;10.292;2023-04-24T03:20:03;4.78;;;3.90;;
65315;SDS011;51920;53.952;10.292;2023-04-24T03:22:32;5.40;;;3.90;;
65315;SDS011;51920;53.952;10.292;2023-04-24T03:25:01;5.10;;;3.80;;
65315;SDS011;51920;53.952;10.292;2023-04-24T03:27:29;6.13;;;3.88;;
65315;SDS011;51920;53.952;10.292;2023-04-24T03:30:02;5.82;;;3.95;;
65315;SDS011;51920;53.952;10.292;2023-04-24T03:32:41;5.85;;;3.88;;
65315;SDS011;51920;53.952;10.292;2023-04-24T03:35:11;5.33;;;4.00;;
65315;SDS011;51920;53.952;10.292;2023-04-24T03:37:38;5.00;;;3.78;;
65315;SDS011;51920;53.952;10.292;2023-04-24T03:40:27;5.97;;;3.83;;
65315;SDS011;51920;53.952;10.292;2023-04-24T03:42:56;6.25;;;3.92;;
65315;SDS011;51920;53.952;10.292;2023-04-24T03:45:23;5.40;;;3.95;;
65315;SDS011;51920;53.952;10.292;2023-04-24T03:47:51;5.27;;;4.17;;
65315;SDS011;51920;53.952;10.292;2023-04-24T03:50:18;5.70;;;4.40;;
65315;SDS011;51920;53.952;10.292;2023-04-24T03:52:45;7.25;;;4.10;;
65315;SDS011;51920;53.952;10.292;2023-04-24T03:55:21;4.60;;;3.80;;
65315;SDS011;51920;53.952;10.292;2023-04-24T03:57:48;6.20;;;4.20;;
65315;SDS011;51920;53.952;10.292;2023-04-24T04:00:20;5.70;;;3.87;;
65315;SDS011;51920;53.952;10.292;2023-04-24T04:02:55;5.10;;;3.95;;
65315;SDS011;51920;53.952;10.292;2023-04-24T04:05:21;5.25;;;4.13;;
65315;SDS011;51920;53.952;10.292;2023-04-24T04:07:49;5.72;;;3.97;;
65315;SDS011;51920;53.952;10.292;2023-04-24T04:10:16;6.13;;;4.20;;
65315;SDS011;51920;53.952;10.292;2023-04-24T04:12:43;5.30;;;3.90;;
65315;SDS011;51920;53.952;10.292;2023-04-24T04:15:10;5.72;;;3.75;;
65315;SDS011;51920;53.952;10.292;2023-04-24T04:17:37;5.53;;;3.88;;
65315;SDS011;51920;53.952;10.292;2023-04-24T04:20:06;5.00;;;3.60;;
65315;SDS011;51920;53.952;10.292;2023-04-24T04:22:37;5.82;;;4.05;;
65315;SDS011;51920;53.952;10.292;2023-04-24T04:25:07;5.53;;;4.10;;
65315;SDS011;51920;53.952;10.292;2023-04-24T04:27:35;6.55;;;3.80;;
65315;SDS011;51920;53.952;10.292;2023-04-24T04:30:08;5.28;;;3.65;;
65315;SDS011;51920;53.952;10.292;2023-04-24T04:33:05;4.32;;;3.40;;
65315;SDS011;51920;53.952;10.292;2023-04-24T04:35:33;5.40;;;3.70;;
65315;SDS011;51920;53.952;10.292;2023-04-24T04:38:00;5.63;;;3.60;;
65315;SDS011;51920;53.952;10.292;2023-04-24T04:40:46;4.05;;;3.30;;
65315;SDS011;51920;53.952;10.292;2023-04-24T04:43:15;4.50;;;3.20;;
65315;SDS011;51920;53.952;10.292;2023-04-24T04:45:49;4.22;;;3.00;;
65315;SDS011;51920;53.952;10.292;2023-04-24T04:48:40;4.63;;;3.35;;
65315;SDS011;51920;53.952;10.292;2023-04-24T04:51:07;6.17;;;3.00;;
65315;SDS011;51920;53.952;10.292;2023-04-24T04:53:33;4.00;;;3.08;;
65315;SDS011;51920;53.952;10.292;2023-04-24T04:56:00;4.28;;;2.90;;
65315;SDS011;51920;53.952;10.292;2023-04-24T04:58:38;3.95;;;3.05;;
65315;SDS011;51920;53.952;10.292;2023-04-24T05:01:08;3.58;;;2.80;;
65315;SDS011;51920;53.952;10.292;2023-04-24T05:03:39;3.57;;;2.53;;
65315;SDS011;51920;53.952;10.292;2023-04-24T05:06:10;3.40;;;2.70;;
65315;SDS011;51920;53.952;10.292;2023-04-24T05:08:38;6.18;;;2.80;;
65315;SDS011;51920;53.952;10.292;2023-04-24T05:11:07;3.00;;;2.70;;
65315;SDS011;51920;53.952;10.292;2023-04-24T05:13:36;3.20;;;2.67;;
65315;SDS011;51920;53.952;10.292;2023-04-24T05:16:09;2.93;;;2.20;;
65315;SDS011;51920;53.952;10.292;2023-04-24T05:18:36;2.85;;;2.33;;
65315;SDS011;51920;53.952;10.292;2023-04-24T05:21:05;3.15;;;2.70;;
65315;SDS011;51920;53.952;10.292;2023-04-24T05:23:32;3.17;;;2.67;;
65315;SDS011;51920;53.952;10.292;2023-04-24T05:25:59;3.13;;;2.78;;
65315;SDS011;51920;53.952;10.292;2023-04-24T05:28:28;2.50;;;2.20;;
65315;SDS011;51920;53.952;10.292;2023-04-24T05:31:08;2.97;;;2.60;;
65315;SDS011;51920;53.952;10.292;2023-04-24T05:33:35;3.55;;;2.50;;
65315;SDS011;51920;53.952;10.292;2023-04-24T05:36:02;3.10;;;2.30;;
65315;SDS011;51920;53.952;10.292;2023-04-24T05:38:29;2.67;;;2.40;;
65315;SDS011;51920;53.952;10.292;2023-04-24T05:40:56;3.17;;;2.40;;
65315;SDS011;51920;53.952;10.292;2023-04-24T05:43:22;3.08;;;2.40;;
65315;SDS011;51920;53.952;10.292;2023-04-24T05:45:49;2.72;;;2.20;;
65315;SDS011;51920;53.952;10.292;2023-04-24T05:48:17;2.85;;;2.22;;
65315;SDS011;51920;53.952;10.292;2023-04-24T05:50:44;3.17;;;2.15;;
65315;SDS011;51920;53.952;10.292;2023-04-24T05:53:11;3.13;;;2.20;;
65315;SDS011;51920;53.952;10.292;2023-04-24T05:55:37;3.13;;;2.20;;
65315;SDS011;51920;53.952;10.292;2023-04-24T05:58:05;3.55;;;2.38;;
65315;SDS011;51920;53.952;10.292;2023-04-24T06:00:34;2.55;;;2.20;;
65315;SDS011;51920;53.952;10.292;2023-04-24T06:03:05;2.58;;;2.22;;
65315;SDS011;51920;53.952;10.292;2023-04-24T06:05:32;2.40;;;2.17;;
65315;SDS011;51920;53.952;10.292;2023-04-24T06:08:01;2.60;;;2.13;;
65315;SDS011;51920;53.952;10.292;2023-04-24T06:10:32;4.22;;;2.25;;
65315;SDS011;51920;53.952;10.292;2023-04-24T06:12:59;2.47;;;2.00;;
65315;SDS011;51920;53.952;10.292;2023-04-24T06:15:30;3.20;;;2.20;;
65315;SDS011;51920;53.952;10.292;2023-04-24T06:18:05;2.53;;;2.20;;
65315;SDS011;51920;53.952;10.292;2023-04-24T06:20:32;2.45;;;2.25;;
65315;SDS011;51920;53.952;10.292;2023-04-24T06:23:00;2.65;;;1.85;;
65315;SDS011;51920;53.952;10.292;2023-04-24T06:25:28;2.42;;;2.20;;
65315;SDS011;51920;53.952;10.292;2023-04-24T06:27:54;2.95;;;2.40;;
65315;SDS011;51920;53.952;10.292;2023-04-24T06:30:22;2.40;;;2.20;;
65315;SDS011;51920;53.952;10.292;2023-04-24T06:32:48;2.50;;;2.30;;
65315;SDS011;51920;53.952;10.292;2023-04-24T06:35:15;2.20;;;1.90;;
65315;SDS011;51920;53.952;10.292;2023-04-24T06:37:42;2.63;;;2.10;;
65315;SDS011;51920;53.952;10.292;2023-04-24T06:40:10;3.30;;;2.30;;
65315;SDS011;51920;53.952;10.292;2023-04-24T06:42:37;2.63;;;2.00;;
65315;SDS011;51920;53.952;10.292;2023-04-24T06:45:07;2.92;;;2.30;;
65315;SDS011;51920;53.952;10.292;2023-04-24T06:47:33;3.78;;;2.30;;
65315;SDS011;51920;53.952;10.292;2023-04-24T06:50:00;2.20;;;1.70;;
65315;SDS011;51920;53.952;10.292;2023-04-24T06:52:28;2.30;;;2.10;;
65315;SDS011;51920;53.952;10.292;2023-04-24T06:54:59;2.00;;;1.80;;
65315;SDS011;51920;53.952;10.292;2023-04-24T06:57:29;3.00;;;2.13;;
65315;SDS011;51920;53.952;10.292;2023-04-24T06:59:56;2.42;;;2.00;;
65315;SDS011;51920;53.952;10.292;2023-04-24T07:02:23;2.45;;;2.15;;
65315;SDS011;51920;53.952;10.292;2023-04-24T07:04:49;2.97;;;2.05;;
65315;SDS011;51920;53.952;10.292;2023-04-24T07:07:17;3.00;;;1.90;;
65315;SDS011;51920;53.952;10.292;2023-04-24T07:09:43;2.30;;;1.92;;
65315;SDS011;51920;53.952;10.292;2023-04-24T07:12:11;4.40;;;1.90;;
65315;SDS011;51920;53.952;10.292;2023-04-24T07:14:38;2.80;;;2.20;;
65315;SDS011;51920;53.952;10.292;2023-04-24T07:17:05;2.45;;;2.00;;
65315;SDS011;51920;53.952;10.292;2023-04-24T07:19:33;2.20;;;1.80;;
65315;SDS011;51920;53.952;10.292;2023-04-24T07:22:01;2.00;;;1.80;;
65315;SDS011;51920;53.952;10.292;2023-04-24T07:24:28;2.63;;;1.95;;
65315;SDS011;51920;53.952;10.292;2023-04-24T07:26:56;2.50;;;1.80;;
65315;SDS011;51920;53.952;10.292;2023-04-24T07:29:23;2.40;;;2.10;;
65315;SDS011;51920;53.952;10.292;2023-04-24T07:31:50;2.77;;;1.70;;
65315;SDS011;51920;53.952;10.292;2023-04-24T07:34:17;3.13;;;1.83;;
65315;SDS011;51920;53.952;10.292;2023-04-24T07:36:43;2.25;;;2.03;;
65315;SDS011;51920;53.952;10.292;2023-04-24T07:39:10;2.50;;;1.80;;
65315;SDS011;51920;53.952;10.292;2023-04-24T07:41:37;2.30;;;1.77;;
65315;SDS011;51920;53.952;10.292;2023-04-24T07:44:04;2.67;;;1.80;;
65315;SDS011;51920;53.952;10.292;2023-04-24T07:46:31;3.17;;;1.85;;
65315;SDS011;51920;53.952;10.292;2023-04-24T07:48:58;3.75;;;1.90;;
65315;SDS011;51920;53.952;10.292;2023-04-24T07:51:37;1.92;;;1.60;;
65315;SDS011;51920;53.952;10.292;2023-04-24T07:54:04;2.72;;;1.80;;
65315;SDS011;51920;53.952;10.292;2023-04-24T07:56:34;2.30;;;2.10;;
65315;SDS011;51920;53.952;10.292;2023-04-24T07:59:05;2.60;;;1.90;;
65315;SDS011;51920;53.952;10.292;2023-04-24T08:01:32;3.15;;;1.90;;
65315;SDS011;51920;53.952;10.292;2023-04-24T08:03:58;2.47;;;1.80;;
65315;SDS011;51920;53.952;10.292;2023-04-24T08:06:26;2.15;;;1.95;;
65315;SDS011;51920;53.952;10.292;2023-04-24T08:08:56;1.80;;;1.70;;
65315;SDS011;51920;53.952;10.292;2023-04-24T08:11:23;3.25;;;1.88;;
65315;SDS011;51920;53.952;10.292;2023-04-24T08:13:51;2.10;;;1.90;;
65315;SDS011;51920;53.952;10.292;2023-04-24T08:16:17;2.47;;;2.28;;
65315;SDS011;51920;53.952;10.292;2023-04-24T08:18:44;3.15;;;2.20;;
65315;SDS011;51920;53.952;10.292;2023-04-24T08:21:11;2.30;;;1.97;;
65315;SDS011;51920;53.952;10.292;2023-04-24T08:23:43;3.13;;;2.30;;
65315;SDS011;51920;53.952;10.292;2023-04-24T08:26:10;2.60;;;2.40;;
65315;SDS011;51920;53.952;10.292;2023-04-24T08:28:37;2.67;;;2.40;;
65315;SDS011;51920;53.952;10.292;2023-04-24T08:31:04;3.47;;;2.50;;
65315;SDS011;51920;53.952;10.292;2023-04-24T08:33:31;3.53;;;2.60;;
65315;SDS011;51920;53.952;10.292;2023-04-24T08:36:04;2.80;;;2.58;;
65315;SDS011;51920;53.952;10.292;2023-04-24T08:38:31;3.08;;;2.78;;
65315;SDS011;51920;53.952;10.292;2023-04-24T08:40:59;3.30;;;3.00;;
65315;SDS011;51920;53.952;10.292;2023-04-24T08:43:28;3.75;;;2.90;;
65315;SDS011;51920;53.952;10.292;2023-04-24T08:45:55;3.70;;;3.17;;
65315;SDS011;51920;53.952;10.292;2023-04-24T08:48:23;4.30;;;3.25;;
65315;SDS011;51920;53.952;10.292;2023-04-24T08:50:56;3.67;;;3.28;;
65315;SDS011;51920;53.952;10.292;2023-04-24T08:53:23;3.83;;;3.42;;
65315;SDS011;51920;53.952;10.292;2023-04-24T08:55:51;4.60;;;3.60;;
65315;SDS011;51920;53.952;10.292;2023-04-24T08:58:21;4.00;;;3.53;;
65315;SDS011;51920;53.952;10.292;2023-04-24T09:00:49;3.85;;;3.42;;
65315;SDS011;51920;53.952;10.292;2023-04-24T09:03:16;5.57;;;3.80;;
65315;SDS011;51920;53.952;10.292;2023-04-24T09:05:44;4.18;;;3.50;;
65315;SDS011;51920;53.952;10.292;2023-04-24T09:08:13;4.07;;;3.58;;
65315;SDS011;51920;53.952;10.292;2023-04-24T09:10:40;5.97;;;3.90;;
65315;SDS011;51920;53.952;10.292;2023-04-24T09:13:07;4.75;;;4.15;;
65315;SDS011;51920;53.952;10.292;2023-04-24T09:15:38;5.25;;;4.38;;
65315;SDS011;51920;53.952;10.292;2023-04-24T09:18:05;5.07;;;4.40;;
65315;SDS011;51920;53.952;10.292;2023-04-24T09:20:32;4.75;;;4.25;;
65315;SDS011;51920;53.952;10.292;2023-04-24T09:22:59;5.37;;;4.40;;
65315;SDS011;51920;53.952;10.292;2023-04-24T09:25:32;5.15;;;4.22;;
65315;SDS011;51920;53.952;10.292;2023-04-24T09:28:03;4.97;;;4.47;;
65315;SDS011;51920;53.952;10.292;2023-04-24T09:30:31;5.22;;;4.13;;
65315;SDS011;51920;53.952;10.292;2023-04-24T09:33:13;5.50;;;4.00;;
65315;SDS011;51920;53.952;10.292;2023-04-24T09:35:51;4.10;;;3.70;;
65315;SDS011;51920;53.952;10.292;2023-04-24T09:38:19;4.35;;;3.30;;
65315;SDS011;51920;53.952;10.292;2023-04-24T09:40:59;4.60;;;3.50;;
65315;SDS011;51920;53.952;10.292;2023-04-24T09:43:28;4.20;;;3.58;;
65315;SDS011;51920;53.952;10.292;2023-04-24T09:45:55;4.68;;;3.67;;
65315;SDS011;51920;53.952;10.292;2023-04-24T09:48:30;4.80;;;3.90;;
65315;SDS011;51920;53.952;10.292;2023-04-24T09:50:58;5.55;;;3.97;;
65315;SDS011;51920;53.952;10.292;2023-04-24T09:53:25;5.10;;;4.38;;
65315;SDS011;51920;53.952;10.292;2023-04-24T09:55:53;5.93;;;4.57;;
65315;SDS011;51920;53.952;10.292;2023-04-24T10:01:12;6.67;;;4.90;;
65315;SDS011;51920;53.952;10.292;2023-04-24T10:03:39;6.68;;;5.00;;
65315;SDS011;51920;53.952;10.292;2023-04-24T10:06:11;7.80;;;5.50;;
65315;SDS011;51920;53.952;10.292;2023-04-24T10:08:38;6.70;;;5.40;;
65315;SDS011;51920;53.952;10.292;2023-04-24T10:11:04;6.07;;;5.00;;
65315;SDS011;51920;53.952;10.292;2023-04-24T10:13:32;6.33;;;5.03;;
65315;SDS011;51920;53.952;10.292;2023-04-24T10:15:59;8.13;;;5.90;;
65315;SDS011;51920;53.952;10.292;2023-04-24T10:18:27;6.65;;;5.30;;
65315;SDS011;51920;53.952;10.292;2023-04-24T10:20:54;6.57;;;5.38;;
65315;SDS011;51920;53.952;10.292;2023-04-24T10:23:21;6.70;;;5.60;;
65315;SDS011;51920;53.952;10.292;2023-04-24T10:25:50;8.37;;;5.30;;
65315;SDS011;51920;53.952;10.292;2023-04-24T10:28:17;6.68;;;5.47;;
65315;SDS011;51920;53.952;10.292;2023-04-24T10:30:45;7.10;;;5.57;;
65315;SDS011;51920;53.952;10.292;2023-04-24T10:33:13;7.18;;;5.53;;
65315;SDS011;51920;53.952;10.292;2023-04-24T10:35:41;8.00;;;6.07;;
65315;SDS011;51920;53.952;10.292;2023-04-24T10:38:12;7.37;;;5.87;;
65315;SDS011;51920;53.952;10.292;2023-04-24T10:40:40;8.60;;;5.78;;
65315;SDS011;51920;53.952;10.292;2023-04-24T10:43:08;6.35;;;5.28;;
65315;SDS011;51920;53.952;10.292;2023-04-24T10:45:38;7.53;;;5.10;;
65315;SDS011;51920;53.952;10.292;2023-04-24T10:48:08;7.28;;;5.53;;
65315;SDS011;51920;53.952;10.292;2023-04-24T10:50:44;7.77;;;5.57;;
65315;SDS011;51920;53.952;10.292;2023-04-24T10:53:15;7.50;;;5.20;;
65315;SDS011;51920;53.952;10.292;2023-04-24T10:55:49;6.60;;;5.60;;
65315;SDS011;51920;53.952;10.292;2023-04-24T10:58:24;7.40;;;5.40;;
65315;SDS011;51920;53.952;10.292;2023-04-24T11:01:01;7.20;;;5.35;;
65315;SDS011;51920;53.952;10.292;2023-04-24T11:03:29;7.90;;;5.33;;
65315;SDS011;51920;53.952;10.292;2023-04-24T11:05:58;7.80;;;5.68;;
65315;SDS011;51920;53.952;10.292;2023-04-24T11:11:09;7.05;;;5.60;;
65315;SDS011;51920;53.952;10.292;2023-04-24T11:18:57;8.20;;;5.85;;
65315;SDS011;51920;53.952;10.292;2023-04-24T11:21:30;7.80;;;5.65;;
65315;SDS011;51920;53.952;10.292;2023-04-24T11:23:58;8.30;;;5.80;;
65315;SDS011;51920;53.952;10.292;2023-04-24T11:26:45;8.95;;;5.90;;
65315;SDS011;51920;53.952;10.292;2023-04-24T11:29:12;7.60;;;5.43;;
65315;SDS011;51920;53.952;10.292;2023-04-24T11:31:39;8.05;;;5.75;;
65315;SDS011;51920;53.952;10.292;2023-04-24T11:34:15;9.20;;;6.10;;
65315;SDS011;51920;53.952;10.292;2023-04-24T11:36:43;8.10;;;6.07;;
65315;SDS011;51920;53.952;10.292;2023-04-24T11:39:11;11.88;;;6.32;;
65315;SDS011;51920;53.952;10.292;2023-04-24T11:41:38;9.33;;;6.47;;
65315;SDS011;51920;53.952;10.292;2023-04-24T11:44:06;11.15;;;7.28;;
65315;SDS011;51920;53.952;10.292;2023-04-24T11:46:34;8.77;;;6.45;;
65315;SDS011;51920;53.952;10.292;2023-04-24T11:49:01;8.20;;;6.47;;
65315;SDS011;51920;53.952;10.292;2023-04-24T11:51:28;8.57;;;6.57;;
65315;SDS011;51920;53.952;10.292;2023-04-24T11:53:56;10.20;;;6.80;;
65315;SDS011;51920;53.952;10.292;2023-04-24T11:56:28;8.93;;;6.85;;
65315;SDS011;51920;53.952;10.292;2023-04-24T11:58:54;11.10;;;6.95;;
65315;SDS011;51920;53.952;10.292;2023-04-24T12:01:21;10.15;;;7.25;;
65315;SDS011;51920;53.952;10.292;2023-04-24T12:03:49;9.05;;;6.95;;
65315;SDS011;51920;53.952;10.292;2023-04-24T12:06:17;10.57;;;7.10;;
65315;SDS011;51920;53.952;10.292;2023-04-24T12:08:46;10.15;;;6.82;;
65315;SDS011;51920;53.952;10.292;2023-04-24T12:11:14;10.90;;;6.97;;
65315;SDS011;51920;53.952;10.292;2023-04-24T12:13:43;11.48;;;7.80;;
65315;SDS011;51920;53.952;10.292;2023-04-24T12:16:10;11.90;;;7.63;;
65315;SDS011;51920;53.952;10.292;2023-04-24T12:18:44;12.47;;;7.80;;
65315;SDS011;51920;53.952;10.292;2023-04-24T12:21:19;11.40;;;7.75;;
65315;SDS011;51920;53.952;10.292;2023-04-24T12:23:48;11.95;;;7.60;;
65315;SDS011;51920;53.952;10.292;2023-04-24T12:26:16;10.30;;;7.50;;
65315;SDS011;51920;53.952;10.292;2023-04-24T12:28:47;11.93;;;8.00;;
65315;SDS011;51920;53.952;10.292;2023-04-24T12:31:15;12.80;;;8.23;;
65315;SDS011;51920;53.952;10.292;2023-04-24T12:33:43;12.90;;;8.43;;
65315;SDS011;51920;53.952;10.292;2023-04-24T12:36:10;12.70;;;7.93;;
65315;SDS011;51920;53.952;10.292;2023-04-24T12:38:38;12.93;;;8.45;;
65315;SDS011;51920;53.952;10.292;2023-04-24T12:41:11;12.85;;;8.65;;
65315;SDS011;51920;53.952;10.292;2023-04-24T12:43:50;11.90;;;7.90;;
65315;SDS011;51920;53.952;10.292;2023-04-24T12:46:21;12.32;;;7.50;;
65315;SDS011;51920;53.952;10.292;2023-04-24T12:48:47;11.13;;;7.85;;
65315;SDS011;51920;53.952;10.292;2023-04-24T12:51:14;11.30;;;7.35;;
65315;SDS011;51920;53.952;10.292;2023-04-24T12:53:41;10.35;;;7.10;;
65315;SDS011;51920;53.952;10.292;2023-04-24T12:56:08;12.07;;;7.60;;
65315;SDS011;51920;53.952;10.292;2023-04-24T12:58:35;10.82;;;7.60;;
65315;SDS011;51920;53.952;10.292;2023-04-24T13:01:01;11.43;;;7.45;;
65315;SDS011;51920;53.952;10.292;2023-04-24T13:03:28;9.80;;;7.10;;
65315;SDS011;51920;53.952;10.292;2023-04-24T13:05:55;9.55;;;7.18;;
65315;SDS011;51920;53.952;10.292;2023-04-24T13:08:22;10.10;;;7.47;;
65315;SDS011;51920;53.952;10.292;2023-04-24T13:10:49;9.93;;;7.10;;
65315;SDS011;51920;53.952;10.292;2023-04-24T13:13:15;10.60;;;7.75;;
65315;SDS011;51920;53.952;10.292;2023-04-24T13:15:42;9.93;;;7.10;;
65315;SDS011;51920;53.952;10.292;2023-04-24T13:18:09;9.02;;;7.05;;
65315;SDS011;51920;53.952;10.292;2023-04-24T13:20:35;8.53;;;6.33;;
65315;SDS011;51920;53.952;10.292;2023-04-24T13:23:03;10.32;;;7.00;;
65315;SDS011;51920;53.952;10.292;2023-04-24T13:25:34;9.48;;;6.70;;
65315;SDS011;51920;53.952;10.292;2023-04-24T13:28:01;9.82;;;6.53;;
65315;SDS011;51920;53.952;10.292;2023-04-24T13:30:28;9.18;;;6.68;;
65315;SDS011;51920;53.952;10.292;2023-04-24T13:32:55;9.00;;;6.70;;
65315;SDS011;51920;53.952;10.292;2023-04-24T13:35:21;10.35;;;6.40;;
65315;SDS011;51920;53.952;10.292;2023-04-24T13:37:48;8.10;;;6.22;;
65315;SDS011;51920;53.952;10.292;2023-04-24T13:40:15;9.30;;;6.75;;
65315;SDS011;51920;53.952;10.292;2023-04-24T13:42:41;8.73;;;6.35;;
65315;SDS011;51920;53.952;10.292;2023-04-24T13:45:09;8.83;;;6.70;;
65315;SDS011;51920;53.952;10.292;2023-04-24T13:47:43;9.48;;;6.38;;
65315;SDS011;51920;53.952;10.292;2023-04-24T13:50:09;9.98;;;7.10;;
65315;SDS011;51920;53.952;10.292;2023-04-24T13:52:36;9.55;;;6.25;;
65315;SDS011;51920;53.952;10.292;2023-04-24T13:55:04;9.27;;;6.70;;
65315;SDS011;51920;53.952;10.292;2023-04-24T13:57:31;9.10;;;5.97;;
65315;SDS011;51920;53.952;10.292;2023-04-24T13:59:58;8.85;;;5.90;;
65315;SDS011;51920;53.952;10.292;2023-04-24T14:02:32;7.97;;;6.25;;
65315;SDS011;51920;53.952;10.292;2023-04-24T14:04:59;7.68;;;6.05;;
65315;SDS011;51920;53.952;10.292;2023-04-24T14:07:26;8.40;;;6.20;;
65315;SDS011;51920;53.952;10.292;2023-04-24T14:09:54;8.37;;;5.83;;
65315;SDS011;51920;53.952;10.292;2023-04-24T14:12:21;8.38;;;6.18;;
65315;SDS011;51920;53.952;10.292;2023-04-24T14:14:47;7.30;;;6.07;;
65315;SDS011;51920;53.952;10.292;2023-04-24T14:17:14;7.53;;;5.78;;
65315;SDS011;51920;53.952;10.292;2023-04-24T14:19:42;8.52;;;6.15;;
65315;SDS011;51920;53.952;10.292;2023-04-24T14:22:10;8.83;;;6.00;;
65315;SDS011;51920;53.952;10.292;2023-04-24T14:24:37;8.82;;;5.68;;
65315;SDS011;51920;53.952;10.292;2023-04-24T14:27:03;8.18;;;6.10;;
65315;SDS011;51920;53.952;10.292;2023-04-24T14:29:30;8.55;;;6.00;;
65315;SDS011;51920;53.952;10.292;2023-04-24T14:31:57;7.35;;;5.60;;
65315;SDS011;51920;53.952;10.292;2023-04-24T14:34:24;8.47;;;6.00;;
65315;SDS011;51920;53.952;10.292;2023-04-24T14:36:51;8.10;;;5.97;;
65315;SDS011;51920;53.952;10.292;2023-04-24T14:39:18;9.48;;;5.60;;
65315;SDS011;51920;53.952;10.292;2023-04-24T14:41:45;8.27;;;5.53;;
65315;SDS011;51920;53.952;10.292;2023-04-24T14:44:12;8.27;;;5.88;;
65315;SDS011;51920;53.952;10.292;2023-04-24T14:46:38;8.57;;;5.80;;
65315;SDS011;51920;53.952;10.292;2023-04-24T14:49:05;8.23;;;6.03;;
65315;SDS011;51920;53.952;10.292;2023-04-24T14:51:36;9.00;;;6.53;;